sensor_id;sensor_type;location;lat;lon;timestamp;temperature;humidity
12419;DHT22;6273;52.312;9.178;2022-07-01T00:01:38;18.00;99.90
12419;DHT22;6273;52.312;9.178;2022-07-01T00:04:05;17.90;99.90
12419;DHT22;6273;52.312;9.178;2022-07-01T00:06:31;17.90;99.90
12419;DHT22;6273;52.312;9.178;2022-07-01T00:08:57;17.90;99.90
12419;DHT22;6273;52.312;9.178;2022-07-01T00:11:23;17.80;99.90
12419;DHT22;6273;52.312;9.178;2022-07-01T00:13:49;17.70;99.90
12419;DHT22;6273;52.312;9.178;2022-07-01T00:16:14;17.60;99.90
12419;DHT22;6273;52.312;9.178;2022-07-01T00:18:40;17.50;99.90
12419;DHT22;6273;52.312;9.178;2022-07-01T00:21:06;17.60;99.90
12419;DHT22;6273;52.312;9.178;2022-07-01T00:23:32;17.50;99.90
12419;DHT22;6273;52.312;9.178;2022-07-01T00:25:58;17.30;99.90
12419;DHT22;6273;52.312;9.178;2022-07-01T00:28:24;17.20;99.90
12419;DHT22;6273;52.312;9.178;2022-07-01T00:30:49;17.10;99.90
12419;DHT22;6273;52.312;9.178;2022-07-01T00:33:15;17.00;99.90
12419;DHT22;6273;52.312;9.178;2022-07-01T00:35:41;17.10;99.90
12419;DHT22;6273;52.312;9.178;2022-07-01T00:38:06;17.00;99.90
12419;DHT22;6273;52.312;9.178;2022-07-01T00:40:32;16.90;99.90
12419;DHT22;6273;52.312;9.178;2022-07-01T00:42:57;17.00;99.90
12419;DHT22;6273;52.312;9.178;2022-07-01T00:45:23;16.90;99.90
12419;DHT22;6273;52.312;9.178;2022-07-01T00:47:49;16.80;99.90
12419;DHT22;6273;52.312;9.178;2022-07-01T00:50:16;16.80;99.90
12419;DHT22;6273;52.312;9.178;2022-07-01T00:52:42;16.80;99.90
12419;DHT22;6273;52.312;9.178;2022-07-01T00:55:11;16.80;99.90
12419;DHT22;6273;52.312;9.178;2022-07-01T00:57:38;16.70;99.90
12419;DHT22;6273;52.312;9.178;2022-07-01T01:00:06;16.60;99.90
12419;DHT22;6273;52.312;9.178;2022-07-01T01:02:33;16.60;99.90
12419;DHT22;6273;52.312;9.178;2022-07-01T01:04:59;16.60;99.90
12419;DHT22;6273;52.312;9.178;2022-07-01T04:50:05;15.30;99.90
12419;DHT22;6273;52.312;9.178;2022-07-01T04:52:31;15.30;99.90
12419;DHT22;6273;52.312;9.178;2022-07-01T04:54:57;15.30;99.90
12419;DHT22;6273;52.312;9.178;2022-07-01T04:57:23;15.30;99.90
12419;DHT22;6273;52.312;9.178;2022-07-01T04:59:48;15.40;99.90
12419;DHT22;6273;52.312;9.178;2022-07-01T05:02:14;15.40;99.90
12419;DHT22;6273;52.312;9.178;2022-07-01T05:04:39;15.40;99.90
12419;DHT22;6273;52.312;9.178;2022-07-01T06:17:06;16.20;99.90
12419;DHT22;6273;52.312;9.178;2022-07-01T06:19:41;16.20;99.90
12419;DHT22;6273;52.312;9.178;2022-07-01T06:22:28;16.30;99.90
12419;DHT22;6273;52.312;9.178;2022-07-01T06:24:54;16.30;99.90
12419;DHT22;6273;52.312;9.178;2022-07-01T06:27:24;16.30;99.90
12419;DHT22;6273;52.312;9.178;2022-07-01T06:29:54;16.30;99.90
12419;DHT22;6273;52.312;9.178;2022-07-01T06:32:20;16.20;99.90
12419;DHT22;6273;52.312;9.178;2022-07-01T06:34:46;16.30;99.90
12419;DHT22;6273;52.312;9.178;2022-07-01T07:52:24;15.50;99.90
12419;DHT22;6273;52.312;9.178;2022-07-01T07:54:49;15.60;99.90
12419;DHT22;6273;52.312;9.178;2022-07-01T07:57:15;15.60;99.90
12419;DHT22;6273;52.312;9.178;2022-07-01T07:59:41;15.70;99.90
12419;DHT22;6273;52.312;9.178;2022-07-01T08:02:07;15.70;99.90
12419;DHT22;6273;52.312;9.178;2022-07-01T08:04:33;15.80;99.90
12419;DHT22;6273;52.312;9.178;2022-07-01T08:06:58;15.80;99.90
12419;DHT22;6273;52.312;9.178;2022-07-01T08:09:25;15.90;99.90
12419;DHT22;6273;52.312;9.178;2022-07-01T08:11:51;15.90;99.90
12419;DHT22;6273;52.312;9.178;2022-07-01T08:14:16;15.90;99.90
12419;DHT22;6273;52.312;9.178;2022-07-01T08:19:36;16.00;99.90
12419;DHT22;6273;52.312;9.178;2022-07-01T08:22:04;16.00;99.90
12419;DHT22;6273;52.312;9.178;2022-07-01T08:24:30;16.20;99.90
12419;DHT22;6273;52.312;9.178;2022-07-01T08:30:10;16.30;99.90
12419;DHT22;6273;52.312;9.178;2022-07-01T08:36:15;16.40;99.90
12419;DHT22;6273;52.312;9.178;2022-07-01T08:38:41;16.40;99.90
12419;DHT22;6273;52.312;9.178;2022-07-01T08:41:07;16.40;99.90
12419;DHT22;6273;52.312;9.178;2022-07-01T08:43:34;16.50;99.90
12419;DHT22;6273;52.312;9.178;2022-07-01T08:46:01;16.60;99.90
12419;DHT22;6273;52.312;9.178;2022-07-01T08:48:28;16.80;99.90
12419;DHT22;6273;52.312;9.178;2022-07-01T08:50:54;17.10;99.90
12419;DHT22;6273;52.312;9.178;2022-07-01T08:53:19;17.30;99.90
12419;DHT22;6273;52.312;9.178;2022-07-01T08:55:45;17.40;99.90
12419;DHT22;6273;52.312;9.178;2022-07-01T09:05:25;17.60;99.90
12419;DHT22;6273;52.312;9.178;2022-07-01T09:08:08;17.60;99.90
12419;DHT22;6273;52.312;9.178;2022-07-01T09:10:55;17.60;99.90
12419;DHT22;6273;52.312;9.178;2022-07-01T09:13:20;17.80;99.90
12419;DHT22;6273;52.312;9.178;2022-07-01T09:15:46;17.80;99.90
12419;DHT22;6273;52.312;9.178;2022-07-01T09:28:23;17.60;99.90
12419;DHT22;6273;52.312;9.178;2022-07-01T09:30:51;17.50;99.90
12419;DHT22;6273;52.312;9.178;2022-07-01T09:33:19;17.40;99.90
12419;DHT22;6273;52.312;9.178;2022-07-01T09:35:47;17.40;99.90
12419;DHT22;6273;52.312;9.178;2022-07-01T09:38:19;17.50;99.90
12419;DHT22;6273;52.312;9.178;2022-07-01T09:40:58;17.40;99.90
12419;DHT22;6273;52.312;9.178;2022-07-01T09:43:33;17.30;99.90
12419;DHT22;6273;52.312;9.178;2022-07-01T09:46:09;17.20;99.90
12419;DHT22;6273;52.312;9.178;2022-07-01T10:04:01;17.90;99.90
12419;DHT22;6273;52.312;9.178;2022-07-01T16:33:58;22.40;99.90
12419;DHT22;6273;52.312;9.178;2022-07-01T17:01:26;21.90;99.90
12419;DHT22;6273;52.312;9.178;2022-07-01T17:03:55;22.00;99.90
12419;DHT22;6273;52.312;9.178;2022-07-01T17:06:23;21.90;99.90
12419;DHT22;6273;52.312;9.178;2022-07-01T17:08:51;22.00;99.90
12419;DHT22;6273;52.312;9.178;2022-07-01T17:11:18;22.00;99.90
12419;DHT22;6273;52.312;9.178;2022-07-01T17:13:47;22.10;99.90
12419;DHT22;6273;52.312;9.178;2022-07-01T17:16:14;22.20;99.90
12419;DHT22;6273;52.312;9.178;2022-07-01T17:18:43;22.30;99.90
12419;DHT22;6273;52.312;9.178;2022-07-01T17:21:10;22.40;99.90
12419;DHT22;6273;52.312;9.178;2022-07-01T17:23:49;22.30;99.90
12419;DHT22;6273;52.312;9.178;2022-07-01T17:26:19;22.40;99.90
12419;DHT22;6273;52.312;9.178;2022-07-01T17:28:56;22.40;99.90
12419;DHT22;6273;52.312;9.178;2022-07-01T17:31:27;22.50;99.90
12419;DHT22;6273;52.312;9.178;2022-07-01T17:33:55;22.60;99.90
12419;DHT22;6273;52.312;9.178;2022-07-01T22:31:00;15.30;99.90
